Time;durP1;ratioP1;P1;durP2;ratioP2;P2;SDS_P1;SDS_P2;PMS_P1;PMS_P2;Temp;Humidity;BMP_temperature;BMP_pressure;BME280_temperature;BME280_humidity;BME280_pressure;Samples;Min_cycle;Max_cycle;Signal;HPM_P1;HPM_P2
2022/09/29 00:00:36;;;;;;;;;;;17.70;56.50;;;;;;5012107;28;20346;-72
2022/09/29 00:03:02;;;;;;;;;;;17.60;56.40;;;;;;5012024;28;19910;-72
2022/09/29 00:05:27;;;;;;;;;;;17.60;56.50;;;;;;5013232;28;19928;-72
2022/09/29 00:07:53;;;;;;;;;;;17.60;56.50;;;;;;5013180;28;19967;-72
2022/09/29 00:10:18;;;;;;;;;;;17.60;56.50;;;;;;5013286;28;20379;-72
2022/09/29 00:12:43;;;;;;;;;;;17.60;56.50;;;;;;5012065;28;19913;-72
2022/09/29 00:15:09;;;;;;;;;;;17.50;56.60;;;;;;5013435;28;20413;-72
2022/09/29 00:17:35;;;;;;;;;;;17.50;56.60;;;;;;5013099;28;19914;-72
2022/09/29 00:20:00;;;;;;;;;;;17.60;56.70;;;;;;5013236;28;20296;-72
2022/09/29 00:22:26;;;;;;;;;;;17.60;56.60;;;;;;5011729;28;19959;-72
2022/09/29 00:24:51;;;;;;;;;;;17.50;57.10;;;;;;5028616;28;19909;-71
2022/09/29 00:27:17;;;;;;;;;;;17.50;56.40;;;;;;5013048;28;19996;-72
2022/09/29 00:29:42;;;;;;;;;;;17.60;56.40;;;;;;5028312;28;19916;-72
2022/09/29 00:32:08;;;;;;;;;;;17.60;56.30;;;;;;5011257;28;20279;-71
2022/09/29 00:34:33;;;;;;;;;;;17.60;56.30;;;;;;5013138;28;19961;-72
2022/09/29 00:36:59;;;;;;;;;;;17.60;56.40;;;;;;5017130;28;20378;-71
2022/09/29 00:39:24;;;;;;;;;;;17.60;56.40;;;;;;5017248;28;20012;-72
2022/09/29 00:41:50;;;;;;;;;;;17.60;56.40;;;;;;5016938;28;19948;-73
2022/09/29 00:44:15;;;;;;;;;;;17.60;56.30;;;;;;5015739;28;19916;-72
2022/09/29 00:46:50;;;;;;;;;;;17.60;56.20;;;;;;5016714;28;19916;-72
2022/09/29 00:49:17;;;;;;;;;;;17.70;56.20;;;;;;5016846;28;19913;-72
2022/09/29 00:51:43;;;;;;;;;;;17.60;56.10;;;;;;5015897;28;20354;-72
2022/09/29 00:54:09;;;;;;;;;;;17.60;56.00;;;;;;5015801;28;19914;-73
2022/09/29 00:56:35;;;;;;;;;;;17.70;56.10;;;;;;5015632;28;19922;-73
2022/09/29 00:59:01;;;;;;;;;;;17.60;56.10;;;;;;5015538;28;19917;-73
2022/09/29 01:01:27;;;;;;;;;;;17.60;56.10;;;;;;5015175;28;19916;-73
2022/09/29 01:03:54;;;;;;;;;;;17.60;56.10;;;;;;5015408;28;19910;-73
2022/09/29 01:06:46;;;;;;;;;;;17.60;56.10;;;;;;4998855;28;19972;-72
2022/09/29 01:09:16;;;;;;;;;;;17.60;55.90;;;;;;5013468;28;19909;-73
2022/09/29 01:11:41;;;;;;;;;;;17.60;56.00;;;;;;5032151;28;20403;-73
2022/09/29 01:14:07;;;;;;;;;;;17.60;56.00;;;;;;5016607;28;19910;-72
2022/09/29 01:16:33;;;;;;;;;;;17.60;55.90;;;;;;5016287;28;20001;-73
2022/09/29 01:19:01;;;;;;;;;;;17.70;55.80;;;;;;5016519;28;19925;-73
2022/09/29 01:21:36;;;;;;;;;;;17.60;55.90;;;;;;5031567;28;19956;-72
2022/09/29 01:24:04;;;;;;;;;;;17.60;55.90;;;;;;5031664;28;20016;-72
2022/09/29 01:26:30;;;;;;;;;;;17.60;55.80;;;;;;5016476;28;19913;-73
2022/09/29 01:28:55;;;;;;;;;;;17.70;55.80;;;;;;5016257;28;20344;-74
2022/09/29 01:31:33;;;;;;;;;;;17.60;55.70;;;;;;5016024;28;19914;-73
2022/09/29 01:34:17;;;;;;;;;;;17.70;55.70;;;;;;5015262;28;19917;-73
2022/09/29 01:36:53;;;;;;;;;;;17.60;55.60;;;;;;5016235;28;19910;-73
2022/09/29 01:39:22;;;;;;;;;;;17.70;55.70;;;;;;5014934;28;19913;-73
2022/09/29 01:41:47;;;;;;;;;;;17.70;55.60;;;;;;5015070;28;19909;-73
2022/09/29 01:44:16;;;;;;;;;;;17.70;55.50;;;;;;5014743;28;19917;-72
2022/09/29 01:46:49;;;;;;;;;;;17.70;55.60;;;;;;5014635;28;20293;-72
2022/09/29 01:49:15;;;;;;;;;;;17.70;55.50;;;;;;5014992;28;20435;-72
2022/09/29 01:51:42;;;;;;;;;;;17.70;55.50;;;;;;5014905;28;19909;-73
2022/09/29 01:54:13;;;;;;;;;;;17.70;55.50;;;;;;5014470;28;19956;-73
2022/09/29 01:56:59;;;;;;;;;;;17.70;55.50;;;;;;5014487;28;19932;-73
2022/09/29 01:59:29;;;;;;;;;;;17.70;55.60;;;;;;5015330;28;19924;-73
2022/09/29 02:01:57;;;;;;;;;;;17.70;55.50;;;;;;5014019;28;19913;-73
2022/09/29 02:04:28;;;;;;;;;;;17.70;55.50;;;;;;5014467;28;19910;-72
2022/09/29 02:06:56;;;;;;;;;;;17.70;55.40;;;;;;5014032;28;19941;-72
2022/09/29 02:09:23;;;;;;;;;;;17.70;55.40;;;;;;5014137;28;19913;-73
2022/09/29 02:11:49;;;;;;;;;;;17.70;55.30;;;;;;5015430;28;19909;-73
2022/09/29 02:14:15;;;;;;;;;;;17.70;55.30;;;;;;5015693;28;20301;-73
2022/09/29 02:16:43;;;;;;;;;;;17.70;55.20;;;;;;5013770;28;19909;-73
2022/09/29 02:19:09;;;;;;;;;;;17.70;55.20;;;;;;5013876;28;19989;-73
2022/09/29 02:21:35;;;;;;;;;;;17.70;55.20;;;;;;5014053;28;20012;-73
2022/09/29 02:24:00;;;;;;;;;;;17.70;55.20;;;;;;4997765;28;19964;-72
2022/09/29 02:26:27;;;;;;;;;;;17.70;55.20;;;;;;4997432;28;19959;-72
2022/09/29 02:28:53;;;;;;;;;;;17.60;55.10;;;;;;5013736;28;20395;-72
2022/09/29 02:31:18;;;;;;;;;;;17.60;55.20;;;;;;5013380;28;19910;-72
2022/09/29 02:33:44;;;;;;;;;;;17.70;55.30;;;;;;5015186;28;19914;-72
2022/09/29 02:36:15;;;;;;;;;;;17.70;55.30;;;;;;5014928;28;19909;-73
2022/09/29 02:38:52;;;;;;;;;;;17.70;55.30;;;;;;5014877;28;19920;-73
2022/09/29 02:41:17;;;;;;;;;;;17.70;55.30;;;;;;5030102;28;19996;-72
2022/09/29 02:43:43;;;;;;;;;;;17.60;55.20;;;;;;5015045;28;19909;-72
2022/09/29 02:46:27;;;;;;;;;;;17.70;55.30;;;;;;5014361;28;19944;-72
2022/09/29 02:49:05;;;;;;;;;;;17.60;55.10;;;;;;5014830;28;19978;-72
2022/09/29 02:51:33;;;;;;;;;;;17.70;55.20;;;;;;5029900;28;20009;-73
2022/09/29 02:54:01;;;;;;;;;;;17.60;55.00;;;;;;5030026;28;19910;-72
2022/09/29 02:56:45;;;;;;;;;;;17.60;55.10;;;;;;5014532;28;19916;-72
2022/09/29 02:59:11;;;;;;;;;;;17.60;55.10;;;;;;5014571;28;19913;-73
2022/09/29 03:01:45;;;;;;;;;;;17.60;55.20;;;;;;5029356;28;19917;-72
2022/09/29 03:04:11;;;;;;;;;;;17.60;55.10;;;;;;5029622;28;19998;-72
2022/09/29 03:06:36;;;;;;;;;;;17.60;55.80;;;;;;5012907;28;19929;-71
2022/09/29 03:09:01;;;;;;;;;;;17.60;55.10;;;;;;5001058;28;19909;-72
2022/09/29 03:11:27;;;;;;;;;;;17.60;55.20;;;;;;4994589;28;19933;-72
2022/09/29 03:13:53;;;;;;;;;;;17.60;55.20;;;;;;4993395;28;19932;-72
2022/09/29 03:16:18;;;;;;;;;;;17.50;55.10;;;;;;4994361;28;19937;-72
2022/09/29 03:18:43;;;;;;;;;;;17.60;55.20;;;;;;4993323;28;19918;-73
2022/09/29 03:21:09;;;;;;;;;;;17.60;55.30;;;;;;4993031;28;19920;-73
2022/09/29 03:23:34;;;;;;;;;;;17.60;55.30;;;;;;4993370;28;19913;-72
2022/09/29 03:26:00;;;;;;;;;;;17.50;55.20;;;;;;4993199;28;19910;-72
2022/09/29 03:28:25;;;;;;;;;;;17.50;55.20;;;;;;4994508;28;20358;-72
2022/09/29 03:30:51;;;;;;;;;;;17.50;55.20;;;;;;4992777;28;20419;-72
2022/09/29 03:33:17;;;;;;;;;;;17.50;55.20;;;;;;4994263;28;20389;-72
2022/09/29 03:35:42;;;;;;;;;;;17.50;55.20;;;;;;4994075;28;19917;-72
2022/09/29 03:38:08;;;;;;;;;;;17.50;55.20;;;;;;4997233;28;19910;-72
2022/09/29 03:40:33;;;;;;;;;;;17.50;55.20;;;;;;5013787;28;19917;-72
2022/09/29 03:42:59;;;;;;;;;;;17.50;55.10;;;;;;5013546;28;20466;-72
2022/09/29 03:45:24;;;;;;;;;;;17.50;55.20;;;;;;5013628;28;19913;-73
2022/09/29 03:47:50;;;;;;;;;;;17.50;55.10;;;;;;5011967;28;19910;-72
2022/09/29 03:50:15;;;;;;;;;;;17.50;55.10;;;;;;5012580;28;19929;-72
2022/09/29 03:52:41;;;;;;;;;;;17.50;55.10;;;;;;5012382;28;19914;-72
2022/09/29 03:55:06;;;;;;;;;;;17.50;55.00;;;;;;5012439;28;19915;-71
2022/09/29 03:57:32;;;;;;;;;;;17.50;54.90;;;;;;4996091;28;20332;-72
2022/09/29 03:59:57;;;;;;;;;;;17.60;55.10;;;;;;5011920;28;19936;-72
2022/09/29 04:02:23;;;;;;;;;;;17.50;54.90;;;;;;5012924;28;19961;-72
2022/09/29 04:04:48;;;;;;;;;;;17.50;55.00;;;;;;5013261;28;19913;-72
2022/09/29 04:07:14;;;;;;;;;;;17.50;55.00;;;;;;5013408;28;19925;-72
2022/09/29 04:09:39;;;;;;;;;;;17.60;55.10;;;;;;5012748;28;20325;-72
2022/09/29 04:12:05;;;;;;;;;;;17.50;55.10;;;;;;5013137;28;19925;-73
2022/09/29 04:14:30;;;;;;;;;;;17.50;55.10;;;;;;5012147;28;19910;-72
2022/09/29 04:16:56;;;;;;;;;;;17.50;55.10;;;;;;5012764;28;19955;-73
2022/09/29 04:19:21;;;;;;;;;;;17.50;55.10;;;;;;5013059;28;19913;-71
2022/09/29 04:21:46;;;;;;;;;;;17.50;55.10;;;;;;5028346;28;19910;-72
2022/09/29 04:24:12;;;;;;;;;;;17.50;55.10;;;;;;5013314;28;20316;-73
2022/09/29 04:26:38;;;;;;;;;;;17.40;55.10;;;;;;5012901;28;19910;-73
2022/09/29 04:29:04;;;;;;;;;;;17.50;55.70;;;;;;5011898;28;19913;-73
2022/09/29 04:31:29;;;;;;;;;;;17.50;54.90;;;;;;5012634;28;19997;-72
2022/09/29 04:33:55;;;;;;;;;;;17.50;54.90;;;;;;5012881;28;19920;-73
2022/09/29 04:36:20;;;;;;;;;;;17.50;54.70;;;;;;5012888;28;19914;-72
2022/09/29 04:38:47;;;;;;;;;;;17.50;54.80;;;;;;5021488;28;19956;-72
2022/09/29 04:41:12;;;;;;;;;;;17.50;54.90;;;;;;4995250;28;19916;-72
2022/09/29 04:43:38;;;;;;;;;;;17.40;54.80;;;;;;5012910;28;20291;-72
2022/09/29 04:46:04;;;;;;;;;;;17.50;54.90;;;;;;5012501;28;20297;-72
2022/09/29 04:48:30;;;;;;;;;;;17.50;54.90;;;;;;4995145;28;20361;-71
2022/09/29 04:50:55;;;;;;;;;;;17.50;54.90;;;;;;5012730;28;19914;-72
2022/09/29 04:53:20;;;;;;;;;;;17.40;54.70;;;;;;5011534;28;19917;-71
2022/09/29 04:55:46;;;;;;;;;;;17.50;54.80;;;;;;5011501;28;19909;-72
2022/09/29 04:58:11;;;;;;;;;;;17.50;54.70;;;;;;5011598;28;19909;-71
2022/09/29 05:00:37;;;;;;;;;;;17.50;54.70;;;;;;4994920;28;19914;-72
2022/09/29 05:03:02;;;;;;;;;;;17.50;54.70;;;;;;5010865;28;20006;-72
2022/09/29 05:05:28;;;;;;;;;;;17.50;54.70;;;;;;5011432;28;19921;-71
2022/09/29 05:07:53;;;;;;;;;;;17.50;54.70;;;;;;5012596;28;20343;-72
2022/09/29 05:10:19;;;;;;;;;;;17.40;54.80;;;;;;5013014;28;20431;-71
2022/09/29 05:12:48;;;;;;;;;;;17.40;54.80;;;;;;5012355;28;20297;-71
2022/09/29 05:15:14;;;;;;;;;;;17.40;54.80;;;;;;5027672;28;19913;-71
2022/09/29 05:17:39;;;;;;;;;;;17.40;54.70;;;;;;5011959;28;20387;-72
2022/09/29 05:20:05;;;;;;;;;;;17.40;55.30;;;;;;5012513;28;19918;-72
2022/09/29 05:22:30;;;;;;;;;;;17.40;54.70;;;;;;5015463;28;19996;-72
2022/09/29 05:24:56;;;;;;;;;;;17.40;54.80;;;;;;5014830;28;19910;-72
2022/09/29 05:27:21;;;;;;;;;;;17.40;54.80;;;;;;5031405;28;19933;-73
2022/09/29 05:29:47;;;;;;;;;;;17.40;54.80;;;;;;5016147;28;19959;-73
2022/09/29 05:32:12;;;;;;;;;;;17.40;54.80;;;;;;5030987;28;19964;-73
2022/09/29 05:34:37;;;;;;;;;;;17.40;54.80;;;;;;5031287;28;20215;-72
2022/09/29 05:37:03;;;;;;;;;;;17.40;54.80;;;;;;5031304;28;19932;-72
2022/09/29 05:39:33;;;;;;;;;;;17.40;54.70;;;;;;5015650;28;19925;-71
2022/09/29 05:41:58;;;;;;;;;;;17.40;54.80;;;;;;5030455;28;19985;-72
2022/09/29 05:44:23;;;;;;;;;;;17.40;54.80;;;;;;5014688;28;20439;-73
2022/09/29 05:46:49;;;;;;;;;;;17.40;54.60;;;;;;5015418;28;20332;-72
2022/09/29 05:49:14;;;;;;;;;;;17.40;54.60;;;;;;5015722;28;19909;-72
2022/09/29 05:51:40;;;;;;;;;;;17.40;54.60;;;;;;5030976;28;19996;-72
2022/09/29 05:54:05;;;;;;;;;;;17.40;54.60;;;;;;5030909;28;20417;-72
2022/09/29 05:56:31;;;;;;;;;;;17.40;54.60;;;;;;5015507;28;20386;-72
2022/09/29 05:58:56;;;;;;;;;;;17.40;54.60;;;;;;5030646;28;19920;-73
2022/09/29 06:01:22;;;;;;;;;;;17.40;54.60;;;;;;5015075;28;19914;-73
2022/09/29 06:03:49;;;;;;;;;;;17.40;54.60;;;;;;5030601;28;19920;-72
2022/09/29 06:06:16;;;;;;;;;;;17.40;54.40;;;;;;5030116;28;20401;-72
2022/09/29 06:08:42;;;;;;;;;;;17.50;54.50;;;;;;5024582;28;19917;-73
2022/09/29 06:11:11;;;;;;;;;;;17.50;54.50;;;;;;4997557;28;19910;-74
2022/09/29 06:13:37;;;;;;;;;;;17.50;54.50;;;;;;4981418;28;19909;-73
2022/09/29 06:16:02;;;;;;;;;;;17.40;54.40;;;;;;4997111;28;20011;-72
2022/09/29 06:18:28;;;;;;;;;;;17.50;54.40;;;;;;5015064;28;20011;-73
2022/09/29 06:20:58;;;;;;;;;;;17.50;54.50;;;;;;5014797;28;19918;-72
2022/09/29 06:23:24;;;;;;;;;;;17.40;54.50;;;;;;5015137;28;20007;-73
2022/09/29 06:25:54;;;;;;;;;;;17.40;54.50;;;;;;4997228;28;20022;-73
2022/09/29 06:28:19;;;;;;;;;;;17.40;54.60;;;;;;4997266;28;19949;-73
2022/09/29 06:30:44;;;;;;;;;;;17.40;54.60;;;;;;5014577;28;19910;-73
2022/09/29 06:33:10;;;;;;;;;;;17.40;54.60;;;;;;5013130;28;19960;-74
2022/09/29 06:38:19;;;;;;;;;;;17.40;54.50;;;;;;5014767;28;19921;-73
2022/09/29 06:40:45;;;;;;;;;;;17.40;54.60;;;;;;5013364;28;20392;-73
2022/09/29 06:43:11;;;;;;;;;;;17.40;54.60;;;;;;5013465;28;19932;-73
2022/09/29 06:45:37;;;;;;;;;;;17.40;54.60;;;;;;5014405;28;19996;-73
2022/09/29 06:48:03;;;;;;;;;;;17.40;54.60;;;;;;5014657;28;20009;-73
2022/09/29 06:50:28;;;;;;;;;;;17.40;54.60;;;;;;5014939;28;19953;-73
2022/09/29 06:52:54;;;;;;;;;;;17.40;54.60;;;;;;5029915;28;20401;-73
2022/09/29 06:55:19;;;;;;;;;;;17.40;54.60;;;;;;5014586;28;19910;-73
2022/09/29 06:57:45;;;;;;;;;;;17.40;54.70;;;;;;5014473;28;20389;-73
2022/09/29 07:00:10;;;;;;;;;;;17.40;54.60;;;;;;5014425;28;20307;-73
2022/09/29 07:02:36;;;;;;;;;;;17.40;54.60;;;;;;5014150;28;19976;-73
2022/09/29 07:05:01;;;;;;;;;;;17.40;54.60;;;;;;5014168;28;19917;-73
2022/09/29 07:07:26;;;;;;;;;;;17.40;54.60;;;;;;5013094;28;19909;-74
2022/09/29 07:09:52;;;;;;;;;;;17.40;54.60;;;;;;5014272;28;20385;-74
2022/09/29 07:12:17;;;;;;;;;;;17.30;54.50;;;;;;5014174;28;20003;-73
2022/09/29 07:14:43;;;;;;;;;;;17.30;54.50;;;;;;5014166;28;19957;-72
2022/09/29 07:17:08;;;;;;;;;;;17.30;54.60;;;;;;5013414;28;19920;-73
2022/09/29 07:19:34;;;;;;;;;;;17.30;54.70;;;;;;5014047;28;19918;-74
2022/09/29 07:21:59;;;;;;;;;;;17.30;54.70;;;;;;5014166;28;19919;-73
2022/09/29 07:24:25;;;;;;;;;;;17.40;54.70;;;;;;4996491;28;20358;-73
2022/09/29 07:26:50;;;;;;;;;;;17.40;54.60;;;;;;5013769;28;19909;-73
2022/09/29 07:29:16;;;;;;;;;;;17.40;54.60;;;;;;5012728;28;19957;-73
2022/09/29 07:31:41;;;;;;;;;;;17.40;54.60;;;;;;5013349;28;19921;-73
2022/09/29 07:34:07;;;;;;;;;;;17.30;54.50;;;;;;5013846;28;20336;-73
2022/09/29 07:36:32;;;;;;;;;;;17.40;54.70;;;;;;5012698;28;20288;-72
2022/09/29 07:38:58;;;;;;;;;;;17.30;54.70;;;;;;4996284;28;20278;-73
2022/09/29 07:41:23;;;;;;;;;;;17.30;54.60;;;;;;4996063;28;20289;-72
2022/09/29 07:43:48;;;;;;;;;;;17.40;54.70;;;;;;5013443;28;19949;-73
2022/09/29 07:46:14;;;;;;;;;;;17.30;54.60;;;;;;4994620;28;19921;-73
2022/09/29 07:48:39;;;;;;;;;;;17.30;54.70;;;;;;5013612;28;19980;-73
2022/09/29 07:51:11;;;;;;;;;;;17.30;54.70;;;;;;4995845;28;19913;-73
2022/09/29 07:53:36;;;;;;;;;;;17.30;54.70;;;;;;5013541;28;19972;-73
2022/09/29 07:56:08;;;;;;;;;;;17.40;54.70;;;;;;5013194;28;19913;-73
2022/09/29 07:58:34;;;;;;;;;;;17.40;54.70;;;;;;4995928;28;20456;-73
2022/09/29 08:01:00;;;;;;;;;;;17.40;54.70;;;;;;4995225;28;19918;-73
2022/09/29 08:03:25;;;;;;;;;;;17.40;54.80;;;;;;4995585;28;19973;-73
2022/09/29 08:05:51;;;;;;;;;;;17.30;54.70;;;;;;4992116;28;19926;-74
2022/09/29 08:08:17;;;;;;;;;;;17.30;54.70;;;;;;4992721;28;19916;-73
2022/09/29 08:10:42;;;;;;;;;;;17.30;54.70;;;;;;4992511;28;20007;-74
2022/09/29 08:13:08;;;;;;;;;;;17.30;54.70;;;;;;4992322;28;19917;-73
2022/09/29 08:15:33;;;;;;;;;;;17.30;54.70;;;;;;4992373;28;19914;-73
2022/09/29 08:17:59;;;;;;;;;;;17.30;54.80;;;;;;4993338;28;19914;-73
2022/09/29 08:20:25;;;;;;;;;;;17.30;54.90;;;;;;4993568;28;19992;-73
2022/09/29 08:22:51;;;;;;;;;;;17.30;54.90;;;;;;4992189;28;19917;-73
2022/09/29 08:25:16;;;;;;;;;;;17.30;54.90;;;;;;4992157;28;19910;-73
2022/09/29 08:27:42;;;;;;;;;;;17.30;54.80;;;;;;4993316;28;20009;-73
2022/09/29 08:30:09;;;;;;;;;;;17.30;54.90;;;;;;4992304;28;19921;-73
2022/09/29 08:32:35;;;;;;;;;;;17.30;55.00;;;;;;4991688;28;19914;-71
2022/09/29 08:35:00;;;;;;;;;;;17.30;55.00;;;;;;4976007;28;19910;-73
2022/09/29 08:37:26;;;;;;;;;;;17.30;55.10;;;;;;4992304;28;19924;-74
2022/09/29 08:39:51;;;;;;;;;;;17.30;55.00;;;;;;4991864;28;19914;-73
2022/09/29 08:42:26;;;;;;;;;;;17.30;55.00;;;;;;4991791;28;19917;-73
2022/09/29 08:44:55;;;;;;;;;;;17.30;55.00;;;;;;4993312;28;19909;-73
2022/09/29 08:47:23;;;;;;;;;;;17.30;55.00;;;;;;5007747;28;19918;-73
2022/09/29 08:49:52;;;;;;;;;;;17.30;54.90;;;;;;4991911;28;19910;-73
2022/09/29 08:52:19;;;;;;;;;;;17.30;54.80;;;;;;4991678;28;19945;-73
2022/09/29 08:54:45;;;;;;;;;;;17.40;54.90;;;;;;5008134;28;19914;-73
2022/09/29 08:57:20;;;;;;;;;;;17.40;54.90;;;;;;5010686;28;19910;-73
2022/09/29 08:59:47;;;;;;;;;;;17.40;54.90;;;;;;5011373;28;19953;-73
2022/09/29 09:02:12;;;;;;;;;;;17.40;54.90;;;;;;5011627;28;19910;-73
2022/09/29 09:04:41;;;;;;;;;;;17.40;54.90;;;;;;4997311;28;19960;-73
2022/09/29 09:07:25;;;;;;;;;;;17.40;54.90;;;;;;5015279;28;19967;-72
2022/09/29 09:10:17;;;;;;;;;;;17.40;54.90;;;;;;5015530;28;19909;-74
2022/09/29 09:12:46;;;;;;;;;;;17.40;54.90;;;;;;5014360;28;20377;-72
2022/09/29 09:15:20;;;;;;;;;;;17.50;54.90;;;;;;5016522;28;19913;-72
2022/09/29 09:17:55;;;;;;;;;;;17.40;54.90;;;;;;5014683;28;19929;-73
2022/09/29 09:20:23;;;;;;;;;;;17.40;54.90;;;;;;5016296;28;19914;-73
2022/09/29 09:22:56;;;;;;;;;;;17.40;54.90;;;;;;5016206;28;19909;-74
2022/09/29 09:25:28;;;;;;;;;;;17.50;54.90;;;;;;5014998;28;19916;-74
2022/09/29 09:28:10;;;;;;;;;;;17.40;55.00;;;;;;5016157;28;20324;-73
2022/09/29 09:30:56;;;;;;;;;;;17.50;55.10;;;;;;5014746;28;20132;-73
2022/09/29 09:33:23;;;;;;;;;;;17.50;55.10;;;;;;5015668;28;19917;-73
2022/09/29 09:35:51;;;;;;;;;;;17.50;55.00;;;;;;5014758;28;19953;-73
2022/09/29 09:38:20;;;;;;;;;;;17.50;55.10;;;;;;4998282;28;19960;-73
2022/09/29 09:40:47;;;;;;;;;;;17.50;54.90;;;;;;5014453;28;20012;-73
2022/09/29 09:43:18;;;;;;;;;;;17.50;55.00;;;;;;5014531;28;19985;-73
2022/09/29 09:45:53;;;;;;;;;;;17.50;55.00;;;;;;4997637;28;19909;-73
2022/09/29 09:48:24;;;;;;;;;;;17.40;55.00;;;;;;5014348;28;19909;-74
2022/09/29 09:50:50;;;;;;;;;;;17.40;55.00;;;;;;5015788;28;19909;-74
2022/09/29 09:53:20;;;;;;;;;;;17.40;55.10;;;;;;5014546;28;19913;-73
2022/09/29 09:55:47;;;;;;;;;;;17.50;55.10;;;;;;5014328;28;19910;-72
2022/09/29 09:58:21;;;;;;;;;;;17.40;55.10;;;;;;5014671;28;19960;-74
2022/09/29 10:00:48;;;;;;;;;;;17.50;55.20;;;;;;5015036;28;19960;-73
2022/09/29 10:03:15;;;;;;;;;;;17.40;55.10;;;;;;5014360;28;20305;-73
2022/09/29 10:05:41;;;;;;;;;;;17.50;55.20;;;;;;5015421;28;20012;-73
2022/09/29 10:08:25;;;;;;;;;;;17.40;55.20;;;;;;5013043;28;19932;-73
2022/09/29 10:10:51;;;;;;;;;;;17.50;55.30;;;;;;5015334;28;19909;-73
2022/09/29 10:13:17;;;;;;;;;;;17.50;55.20;;;;;;4997879;28;19979;-72
2022/09/29 10:15:45;;;;;;;;;;;17.50;55.20;;;;;;5013632;28;19909;-74
2022/09/29 10:18:19;;;;;;;;;;;17.40;55.20;;;;;;5015242;28;20007;-74
2022/09/29 10:20:45;;;;;;;;;;;17.50;55.30;;;;;;5015097;28;19918;-73
2022/09/29 10:23:25;;;;;;;;;;;17.50;55.20;;;;;;5014949;28;19910;-73
2022/09/29 10:25:54;;;;;;;;;;;17.50;55.20;;;;;;5013907;28;20188;-73
2022/09/29 10:28:21;;;;;;;;;;;17.50;55.20;;;;;;5013786;28;19936;-73
2022/09/29 10:30:46;;;;;;;;;;;17.50;55.80;;;;;;5014530;28;20269;-74
2022/09/29 10:33:16;;;;;;;;;;;17.50;55.20;;;;;;5013899;28;19913;-73
2022/09/29 10:35:42;;;;;;;;;;;17.50;55.20;;;;;;5013846;28;20020;-74
2022/09/29 10:38:14;;;;;;;;;;;17.50;55.90;;;;;;5014572;28;19945;-73
2022/09/29 10:40:57;;;;;;;;;;;17.50;55.30;;;;;;5013737;28;19924;-74
2022/09/29 10:43:24;;;;;;;;;;;17.50;55.40;;;;;;5013739;28;19910;-74
2022/09/29 10:45:49;;;;;;;;;;;17.50;55.50;;;;;;5012883;28;19920;-73
2022/09/29 10:48:14;;;;;;;;;;;17.40;55.50;;;;;;5013542;28;19913;-74
2022/09/29 10:50:46;;;;;;;;;;;17.50;55.50;;;;;;5013389;28;19917;-72
2022/09/29 10:53:20;;;;;;;;;;;17.40;55.40;;;;;;5013223;28;19917;-73
2022/09/29 10:55:50;;;;;;;;;;;17.50;55.60;;;;;;4996856;28;20538;-73
2022/09/29 10:58:20;;;;;;;;;;;17.50;55.50;;;;;;5013457;28;19918;-73
2022/09/29 11:00:46;;;;;;;;;;;17.50;55.50;;;;;;5012685;28;20308;-73
2022/09/29 11:03:22;;;;;;;;;;;17.60;55.50;;;;;;4996592;28;19937;-73
2022/09/29 11:05:51;;;;;;;;;;;17.50;55.40;;;;;;5012707;28;19922;-73
2022/09/29 11:08:18;;;;;;;;;;;17.50;55.40;;;;;;5013157;28;19931;-74
2022/09/29 11:10:43;;;;;;;;;;;17.60;55.50;;;;;;5012905;28;19909;-73
2022/09/29 11:13:18;;;;;;;;;;;17.60;55.50;;;;;;5012868;28;20388;-73
2022/09/29 11:15:43;;;;;;;;;;;17.50;55.50;;;;;;5013934;28;20006;-73
2022/09/29 11:18:22;;;;;;;;;;;17.50;55.50;;;;;;4996369;28;19973;-73
2022/09/29 11:20:48;;;;;;;;;;;17.60;55.60;;;;;;4996169;28;19925;-73
2022/09/29 11:23:17;;;;;;;;;;;17.50;55.50;;;;;;5012842;28;19958;-73
2022/09/29 11:26:01;;;;;;;;;;;17.50;55.50;;;;;;5012970;28;19909;-73
2022/09/29 11:28:31;;;;;;;;;;;17.60;55.60;;;;;;5013946;28;20052;-73
2022/09/29 11:31:08;;;;;;;;;;;17.60;55.60;;;;;;5013734;28;20085;-73
2022/09/29 11:33:45;;;;;;;;;;;17.60;55.60;;;;;;5019380;28;19917;-72
2022/09/29 11:36:34;;;;;;;;;;;17.50;55.50;;;;;;5013764;28;20286;-73
2022/09/29 11:38:59;;;;;;;;;;;17.60;55.60;;;;;;5013971;28;19922;-72
2022/09/29 11:41:28;;;;;;;;;;;17.50;55.50;;;;;;5013743;28;19932;-73
2022/09/29 11:43:53;;;;;;;;;;;17.60;55.70;;;;;;5013714;28;20293;-73
2022/09/29 11:46:19;;;;;;;;;;;17.50;55.70;;;;;;5013204;28;19913;-73
2022/09/29 11:49:03;;;;;;;;;;;17.50;55.70;;;;;;5013801;28;19921;-73
2022/09/29 11:51:29;;;;;;;;;;;17.50;55.80;;;;;;5013705;28;19909;-72
2022/09/29 11:54:14;;;;;;;;;;;17.50;55.80;;;;;;5012607;28;19924;-73
2022/09/29 11:56:50;;;;;;;;;;;17.50;55.80;;;;;;5012364;28;19913;-72
2022/09/29 11:59:15;;;;;;;;;;;17.50;55.70;;;;;;5012342;28;20382;-73
2022/09/29 12:01:59;;;;;;;;;;;17.50;55.70;;;;;;5013071;28;19916;-74
2022/09/29 12:04:41;;;;;;;;;;;17.50;55.70;;;;;;5013331;28;19913;-74
2022/09/29 12:07:27;;;;;;;;;;;17.50;55.80;;;;;;5012087;28;19925;-73
2022/09/29 12:09:54;;;;;;;;;;;17.50;55.80;;;;;;5004718;28;19910;-72
2022/09/29 12:12:19;;;;;;;;;;;17.50;55.80;;;;;;5012090;28;19956;-74
2022/09/29 12:14:54;;;;;;;;;;;17.50;55.80;;;;;;5013281;28;20377;-74
2022/09/29 12:17:19;;;;;;;;;;;17.50;55.80;;;;;;5011589;28;20388;-72
2022/09/29 12:19:55;;;;;;;;;;;17.60;55.80;;;;;;5011831;28;19917;-73
2022/09/29 12:22:20;;;;;;;;;;;17.50;55.70;;;;;;4995430;28;20419;-73
2022/09/29 12:24:47;;;;;;;;;;;17.60;55.80;;;;;;5011983;28;20004;-73
2022/09/29 12:27:14;;;;;;;;;;;17.60;55.90;;;;;;5011792;28;19917;-73
2022/09/29 12:29:43;;;;;;;;;;;17.60;55.80;;;;;;5013055;28;19914;-73
2022/09/29 12:32:18;;;;;;;;;;;17.60;55.90;;;;;;5010719;28;19943;-73
2022/09/29 12:34:43;;;;;;;;;;;17.60;55.80;;;;;;5011997;28;19910;-73
2022/09/29 12:37:14;;;;;;;;;;;17.50;55.80;;;;;;5012955;28;20362;-73
2022/09/29 12:39:42;;;;;;;;;;;17.50;55.80;;;;;;5012810;28;19924;-73
2022/09/29 12:42:26;;;;;;;;;;;17.60;55.90;;;;;;5027881;28;19960;-73
2022/09/29 12:45:06;;;;;;;;;;;17.60;55.80;;;;;;5011494;28;19914;-72
2022/09/29 12:47:32;;;;;;;;;;;17.60;55.80;;;;;;5012342;28;19909;-73
2022/09/29 12:50:02;;;;;;;;;;;17.60;55.90;;;;;;5012846;28;19960;-73
2022/09/29 12:52:34;;;;;;;;;;;17.60;55.90;;;;;;5027903;28;20000;-73
2022/09/29 12:55:00;;;;;;;;;;;17.60;55.90;;;;;;5027792;28;19913;-72
2022/09/29 12:57:30;;;;;;;;;;;17.60;55.90;;;;;;5027726;28;20019;-73
2022/09/29 13:00:01;;;;;;;;;;;17.60;56.00;;;;;;5011543;28;19992;-73
2022/09/29 13:02:39;;;;;;;;;;;17.60;56.00;;;;;;5012427;28;19913;-73
2022/09/29 13:05:15;;;;;;;;;;;17.60;55.90;;;;;;5012662;28;19940;-73
2022/09/29 13:07:50;;;;;;;;;;;17.60;55.90;;;;;;5033152;28;19909;-73
2022/09/29 13:10:26;;;;;;;;;;;17.60;55.90;;;;;;5027959;28;19910;-73
2022/09/29 13:13:07;;;;;;;;;;;17.60;55.90;;;;;;5011289;28;19909;-73
2022/09/29 13:15:35;;;;;;;;;;;17.60;55.90;;;;;;5012586;28;19917;-73
2022/09/29 13:18:04;;;;;;;;;;;17.60;55.90;;;;;;5027829;28;19909;-73
2022/09/29 13:20:46;;;;;;;;;;;17.60;55.90;;;;;;5027775;28;19967;-73
2022/09/29 13:23:12;;;;;;;;;;;17.60;55.90;;;;;;5028062;28;19952;-73
2022/09/29 13:25:56;;;;;;;;;;;17.60;56.00;;;;;;5027680;28;19966;-73
2022/09/29 13:28:29;;;;;;;;;;;17.60;56.10;;;;;;5012515;28;20388;-73
2022/09/29 13:30:55;;;;;;;;;;;17.60;56.00;;;;;;5012098;28;19985;-72
2022/09/29 13:33:23;;;;;;;;;;;17.60;56.10;;;;;;5027801;28;19914;-73
2022/09/29 13:35:49;;;;;;;;;;;17.60;56.00;;;;;;5027556;28;19913;-73
2022/09/29 13:38:16;;;;;;;;;;;17.60;56.00;;;;;;5010841;28;19980;-73
2022/09/29 13:41:01;;;;;;;;;;;17.60;56.00;;;;;;5027521;28;19959;-74
2022/09/29 13:44:00;;;;;;;;;;;17.60;56.00;;;;;;5013365;28;19913;-73
2022/09/29 13:46:27;;;;;;;;;;;17.60;56.00;;;;;;5021758;28;19909;-73
2022/09/29 13:49:02;;;;;;;;;;;17.60;56.00;;;;;;5016011;28;19910;-73
2022/09/29 13:51:28;;;;;;;;;;;17.60;56.00;;;;;;5031096;28;19909;-72
2022/09/29 13:54:18;;;;;;;;;;;17.60;56.00;;;;;;5031230;28;20283;-73
2022/09/29 13:56:46;;;;;;;;;;;17.60;56.00;;;;;;5030779;28;19910;-73
2022/09/29 13:59:15;;;;;;;;;;;17.60;56.10;;;;;;5015509;28;19913;-73
2022/09/29 14:01:40;;;;;;;;;;;17.60;56.10;;;;;;5013926;28;19916;-73
2022/09/29 14:04:24;;;;;;;;;;;17.60;56.00;;;;;;5015399;28;19913;-73
2022/09/29 14:06:50;;;;;;;;;;;17.60;56.00;;;;;;5015369;28;19960;-73
2022/09/29 14:09:16;;;;;;;;;;;17.60;56.10;;;;;;5015535;28;20376;-73
2022/09/29 14:11:42;;;;;;;;;;;17.60;56.10;;;;;;5015277;28;20423;-74
2022/09/29 14:14:13;;;;;;;;;;;17.50;56.10;;;;;;5030704;28;19968;-73
2022/09/29 14:16:38;;;;;;;;;;;17.50;56.20;;;;;;5013633;28;19916;-73
2022/09/29 14:19:06;;;;;;;;;;;17.50;56.10;;;;;;5015320;28;19921;-73
2022/09/29 14:21:50;;;;;;;;;;;17.60;56.20;;;;;;5030258;28;20417;-73
2022/09/29 14:24:34;;;;;;;;;;;17.60;56.20;;;;;;5015094;28;20356;-73
2022/09/29 14:27:19;;;;;;;;;;;17.60;56.20;;;;;;5030090;28;20010;-74